Time;durP1;ratioP1;P1;durP2;ratioP2;P2;SDS_P1;SDS_P2;PMS_P1;PMS_P2;Temp;Humidity;BMP_temperature;BMP_pressure;BME280_temperature;BME280_humidity;BME280_pressure;Samples;Min_cycle;Max_cycle;Signal;HPM_P1;HPM_P2
2023/01/19 00:00:58;;;;;;;5.43;3.90;;;;;;;;;;5121331;28;20230;-84
2023/01/19 00:03:28;;;;;;;4.72;4.18;;;;;;;;;;5120823;28;20263;-82
2023/01/19 00:05:56;;;;;;;4.03;3.65;;;;;;;;;;5121521;28;20310;-84
2023/01/19 00:08:23;;;;;;;4.38;3.63;;;;;;;;;;5120680;28;20200;-82
2023/01/19 00:10:51;;;;;;;4.32;3.90;;;;;;;;;;5120486;28;20862;-85
2023/01/19 00:13:18;;;;;;;3.88;3.38;;;;;;;;;;5120265;28;20294;-85
2023/01/19 00:15:47;;;;;;;4.25;3.85;;;;;;;;;;5120713;28;20762;-84
2023/01/19 00:18:15;;;;;;;6.80;4.22;;;;;;;;;;5120157;28;20287;-85
2023/01/19 00:20:44;;;;;;;4.47;3.65;;;;;;;;;;5120115;28;20287;-85
2023/01/19 00:23:12;;;;;;;5.03;4.53;;;;;;;;;;5120717;28;20206;-85
2023/01/19 00:25:41;;;;;;;4.22;3.83;;;;;;;;;;5120488;28;20251;-84
2023/01/19 00:28:08;;;;;;;4.65;3.83;;;;;;;;;;5121144;28;20656;-82
2023/01/19 00:30:36;;;;;;;5.38;4.40;;;;;;;;;;5120033;28;20239;-85
2023/01/19 00:33:05;;;;;;;6.43;4.65;;;;;;;;;;5120086;28;20196;-82
2023/01/19 00:35:32;;;;;;;3.53;3.08;;;;;;;;;;5117092;28;20695;-84
2023/01/19 00:38:00;;;;;;;4.32;4.00;;;;;;;;;;5117083;28;20645;-82
2023/01/19 00:40:27;;;;;;;4.05;3.55;;;;;;;;;;5117287;28;20318;-84
2023/01/19 00:42:54;;;;;;;4.43;3.58;;;;;;;;;;5117148;28;20235;-84
2023/01/19 00:45:23;;;;;;;4.20;3.13;;;;;;;;;;5116245;28;20223;-83
2023/01/19 00:47:53;;;;;;;4.45;4.05;;;;;;;;;;5116871;28;20196;-84
2023/01/19 00:50:22;;;;;;;4.90;4.40;;;;;;;;;;5117764;28;20202;-82
2023/01/19 00:52:51;;;;;;;4.68;3.97;;;;;;;;;;5117049;28;20672;-82
2023/01/19 00:55:19;;;;;;;5.03;4.53;;;;;;;;;;5116754;28;20238;-83
2023/01/19 00:57:48;;;;;;;4.72;4.28;;;;;;;;;;5117202;28;20192;-82
2023/01/19 01:00:19;;;;;;;5.65;4.47;;;;;;;;;;5117084;28;20199;-83
2023/01/19 01:02:47;;;;;;;5.55;3.83;;;;;;;;;;5117636;28;20564;-85
2023/01/19 01:05:15;;;;;;;3.80;3.40;;;;;;;;;;5117973;28;20709;-83
2023/01/19 01:07:44;;;;;;;4.53;3.78;;;;;;;;;;5116660;28;20202;-84
2023/01/19 01:10:16;;;;;;;4.07;3.47;;;;;;;;;;5117642;28;20756;-81
2023/01/19 01:12:43;;;;;;;3.78;3.33;;;;;;;;;;5117572;28;20186;-85
2023/01/19 01:15:14;;;;;;;5.85;4.13;;;;;;;;;;5117160;28;20207;-85
2023/01/19 01:17:46;;;;;;;3.78;3.47;;;;;;;;;;5117081;28;20180;-83
2023/01/19 01:20:16;;;;;;;4.05;3.72;;;;;;;;;;5119022;28;20543;-84
2023/01/19 01:22:47;;;;;;;4.88;4.22;;;;;;;;;;5116705;28;20246;-83
2023/01/19 01:25:15;;;;;;;4.55;3.40;;;;;;;;;;5115918;28;20336;-83
2023/01/19 01:27:43;;;;;;;4.72;4.22;;;;;;;;;;5116606;27;20290;-82
2023/01/19 01:30:13;;;;;;;4.80;4.25;;;;;;;;;;5116471;28;20209;-85
2023/01/19 01:32:42;;;;;;;4.13;3.72;;;;;;;;;;5116278;28;20686;-84
2023/01/19 01:35:10;;;;;;;5.28;3.53;;;;;;;;;;5117042;28;20273;-83
2023/01/19 01:37:38;;;;;;;4.80;3.75;;;;;;;;;;5117007;28;20287;-84
2023/01/19 01:40:10;;;;;;;3.72;2.88;;;;;;;;;;5117279;28;20298;-83
2023/01/19 01:42:39;;;;;;;5.63;4.18;;;;;;;;;;5115522;28;20207;-84
2023/01/19 01:45:29;;;;;;;3.42;3.13;;;;;;;;;;5117764;28;20207;-85
2023/01/19 01:48:00;;;;;;;6.25;3.92;;;;;;;;;;5117777;28;20226;-85
2023/01/19 01:50:29;;;;;;;4.30;3.53;;;;;;;;;;5116755;28;20188;-84
2023/01/19 01:53:01;;;;;;;3.72;3.22;;;;;;;;;;5116861;28;20234;-83
2023/01/19 01:55:32;;;;;;;3.45;3.15;;;;;;;;;;5116909;28;20310;-84
2023/01/19 01:58:02;;;;;;;6.60;4.97;;;;;;;;;;5117012;28;20230;-83
2023/01/19 02:02:49;;;;;;;7.00;4.68;;;;;;;;;;5116030;28;20603;-84
2023/01/19 02:03:18;;;;;;;6.63;5.15;;;;;;;;;;5115774;28;20196;-82
2023/01/19 02:05:46;;;;;;;4.78;3.72;;;;;;;;;;5115870;28;20247;-84
2023/01/19 02:13:49;;;;;;;4.95;4.30;;;;;;;;;;5115510;28;20187;-84
2023/01/19 02:16:17;;;;;;;4.43;3.78;;;;;;;;;;5115365;28;20311;-84
2023/01/19 02:18:45;;;;;;;4.63;3.80;;;;;;;;;;5114625;28;20271;-84
2023/01/19 02:21:17;;;;;;;4.70;4.18;;;;;;;;;;5115443;28;20195;-83
2023/01/19 02:23:48;;;;;;;3.92;3.53;;;;;;;;;;5114984;28;20187;-84
2023/01/19 02:26:19;;;;;;;5.22;3.85;;;;;;;;;;5114850;28;20216;-83
2023/01/19 02:28:51;;;;;;;4.60;3.35;;;;;;;;;;5115502;28;20750;-82
2023/01/19 02:31:19;;;;;;;4.13;3.20;;;;;;;;;;5115037;28;20190;-82
2023/01/19 02:33:46;;;;;;;5.38;3.92;;;;;;;;;;5114972;28;20298;-84
2023/01/19 02:36:17;;;;;;;4.10;3.80;;;;;;;;;;5114424;28;20246;-84
2023/01/19 02:38:47;;;;;;;5.63;4.07;;;;;;;;;;5114962;28;20190;-82
2023/01/19 02:41:18;;;;;;;5.82;5.20;;;;;;;;;;5114740;28;20203;-83
2023/01/19 02:43:47;;;;;;;4.70;3.30;;;;;;;;;;5114602;28;20274;-85
2023/01/19 02:46:15;;;;;;;7.45;5.00;;;;;;;;;;5114831;28;20227;-83
2023/01/19 02:48:43;;;;;;;4.95;3.88;;;;;;;;;;5115112;28;20677;-81
2023/01/19 02:51:14;;;;;;;4.30;3.90;;;;;;;;;;5114620;28;20291;-84
2023/01/19 02:54:17;;;;;;;4.30;3.90;;;;;;;;;;5114924;28;20184;-83
2023/01/19 02:57:00;;;;;;;5.15;4.25;;;;;;;;;;5114873;28;20241;-84
2023/01/19 02:59:42;;;;;;;7.35;5.85;;;;;;;;;;5114812;28;20188;-84
2023/01/19 03:02:24;;;;;;;4.32;3.92;;;;;;;;;;5113906;28;20294;-82
2023/01/19 03:05:07;;;;;;;4.32;3.92;;;;;;;;;;5113733;28;20194;-84
2023/01/19 03:07:43;;;;;;;7.65;5.13;;;;;;;;;;5114136;28;20188;-84
2023/01/19 03:10:21;;;;;;;4.72;4.18;;;;;;;;;;5114286;28;20298;-83
2023/01/19 03:12:52;;;;;;;5.45;3.60;;;;;;;;;;5114866;28;20263;-83
2023/01/19 03:15:23;;;;;;;5.57;4.28;;;;;;;;;;5113355;28;20314;-83
2023/01/19 03:17:51;;;;;;;6.68;4.80;;;;;;;;;;5113781;28;20696;-83
2023/01/19 03:20:23;;;;;;;4.40;3.63;;;;;;;;;;5114481;28;20291;-84
2023/01/19 03:22:55;;;;;;;5.15;4.45;;;;;;;;;;5114202;28;20650;-83
2023/01/19 03:25:26;;;;;;;4.90;3.90;;;;;;;;;;5113880;28;20301;-83
2023/01/19 03:27:55;;;;;;;4.47;4.07;;;;;;;;;;5114231;28;20192;-84
2023/01/19 03:30:27;;;;;;;5.00;3.88;;;;;;;;;;5114508;28;20207;-82
2023/01/19 03:32:59;;;;;;;3.40;3.10;;;;;;;;;;5114454;28;20207;-84
2023/01/19 03:35:31;;;;;;;5.05;3.45;;;;;;;;;;5113781;28;20226;-84
2023/01/19 03:38:00;;;;;;;9.32;5.43;;;;;;;;;;5114772;28;20251;-84
2023/01/19 03:40:31;;;;;;;4.75;4.07;;;;;;;;;;5114577;28;20286;-84
2023/01/19 03:43:00;;;;;;;3.22;2.92;;;;;;;;;;5114522;28;20680;-83
2023/01/19 03:45:29;;;;;;;4.03;3.50;;;;;;;;;;5114358;28;20226;-84
2023/01/19 03:47:57;;;;;;;3.88;3.50;;;;;;;;;;5109106;28;20204;-85
2023/01/19 03:50:28;;;;;;;4.18;3.72;;;;;;;;;;5092976;28;20642;-88
2023/01/19 03:53:05;;;;;;;3.55;3.25;;;;;;;;;;5093579;28;20317;-88
2023/01/19 03:55:35;;;;;;;6.10;3.92;;;;;;;;;;5093859;28;20652;-85
2023/01/19 03:58:03;;;;;;;4.25;3.22;;;;;;;;;;5098707;28;20539;-87
2023/01/19 04:00:31;;;;;;;4.10;3.70;;;;;;;;;;5113828;28;20200;-85
2023/01/19 04:02:59;;;;;;;3.78;3.38;;;;;;;;;;5113979;28;20628;-85
2023/01/19 04:05:26;;;;;;;4.35;3.95;;;;;;;;;;5114051;28;20746;-85
2023/01/19 04:07:54;;;;;;;4.03;3.53;;;;;;;;;;5112542;28;20291;-85
2023/01/19 04:10:22;;;;;;;3.72;3.30;;;;;;;;;;5114147;28;20238;-87
2023/01/19 04:12:58;;;;;;;3.05;2.85;;;;;;;;;;5114736;28;20756;-86
2023/01/19 04:15:25;;;;;;;3.95;3.42;;;;;;;;;;5114240;28;20264;-84
2023/01/19 04:17:53;;;;;;;3.90;3.50;;;;;;;;;;5114198;28;20225;-84
2023/01/19 04:20:21;;;;;;;4.15;3.85;;;;;;;;;;5114564;28;20250;-85
2023/01/19 04:22:49;;;;;;;6.88;4.93;;;;;;;;;;5113775;28;20226;-86
2023/01/19 04:25:16;;;;;;;4.68;3.78;;;;;;;;;;5114274;28;20224;-86
2023/01/19 04:27:44;;;;;;;4.97;3.83;;;;;;;;;;5114341;28;20214;-86
2023/01/19 04:30:15;;;;;;;3.72;3.40;;;;;;;;;;5113716;28;20245;-84
2023/01/19 04:32:43;;;;;;;4.88;3.63;;;;;;;;;;5115955;28;20290;-84
2023/01/19 04:35:10;;;;;;;6.18;4.60;;;;;;;;;;5115710;28;20207;-86
2023/01/19 04:37:40;;;;;;;5.50;4.28;;;;;;;;;;5114631;28;20200;-87
2023/01/19 04:40:09;;;;;;;6.30;4.25;;;;;;;;;;5114266;28;20196;-88
2023/01/19 04:42:37;;;;;;;5.15;4.60;;;;;;;;;;5118047;28;20199;-86
2023/01/19 04:45:06;;;;;;;5.13;4.63;;;;;;;;;;5119048;28;20315;-86
2023/01/19 04:47:35;;;;;;;4.40;4.03;;;;;;;;;;5116990;28;20235;-87
2023/01/19 04:50:04;;;;;;;6.35;4.20;;;;;;;;;;5116162;28;20204;-87
2023/01/19 04:52:34;;;;;;;5.82;5.03;;;;;;;;;;5116105;28;20747;-85
2023/01/19 04:55:01;;;;;;;6.45;4.78;;;;;;;;;;5116355;28;20373;-84
2023/01/19 04:57:30;;;;;;;6.55;5.72;;;;;;;;;;5116501;28;20626;-86
2023/01/19 04:59:57;;;;;;;5.40;4.85;;;;;;;;;;5095184;28;20208;-86
2023/01/19 05:02:25;;;;;;;4.00;3.70;;;;;;;;;;5096008;28;20203;-88
2023/01/19 05:04:54;;;;;;;4.90;4.05;;;;;;;;;;5096070;28;20231;-87
2023/01/19 05:07:21;;;;;;;4.60;4.20;;;;;;;;;;5094594;28;20684;-88
2023/01/19 05:09:49;;;;;;;4.03;3.63;;;;;;;;;;5095202;28;20718;-88
2023/01/19 05:12:16;;;;;;;6.13;5.05;;;;;;;;;;5095982;28;20638;-85
2023/01/19 05:14:44;;;;;;;5.00;4.50;;;;;;;;;;5095785;28;20202;-87
2023/01/19 05:17:12;;;;;;;4.72;3.85;;;;;;;;;;5095937;28;20228;-87
2023/01/19 05:19:39;;;;;;;6.35;4.55;;;;;;;;;;5095009;28;20231;-88
2023/01/19 05:22:08;;;;;;;5.97;5.38;;;;;;;;;;5095136;28;20287;-86
2023/01/19 05:24:35;;;;;;;4.88;4.32;;;;;;;;;;5096548;28;20609;-85
2023/01/19 05:27:03;;;;;;;5.93;4.85;;;;;;;;;;5096052;28;20310;-86
2023/01/19 05:29:31;;;;;;;5.57;5.07;;;;;;;;;;5114131;28;20207;-86
2023/01/19 05:31:58;;;;;;;5.75;4.22;;;;;;;;;;5115957;28;20263;-87
2023/01/19 05:34:26;;;;;;;8.55;6.60;;;;;;;;;;5116688;28;20191;-88
2023/01/19 05:36:53;;;;;;;6.28;5.03;;;;;;;;;;5116212;28;20229;-86
2023/01/19 05:39:22;;;;;;;5.65;4.70;;;;;;;;;;5115911;27;20230;-87
2023/01/19 05:41:50;;;;;;;4.78;4.38;;;;;;;;;;5116099;28;20727;-87
2023/01/19 05:44:17;;;;;;;5.47;4.95;;;;;;;;;;5116728;28;20230;-88
2023/01/19 05:46:45;;;;;;;8.18;4.53;;;;;;;;;;5115589;28;20607;-87
2023/01/19 05:49:13;;;;;;;3.85;3.50;;;;;;;;;;5115782;28;20686;-88
2023/01/19 05:51:44;;;;;;;5.85;4.95;;;;;;;;;;5115895;28;20227;-87
2023/01/19 05:54:14;;;;;;;5.07;4.40;;;;;;;;;;5115506;28;20278;-86
2023/01/19 05:56:43;;;;;;;5.93;5.28;;;;;;;;;;5115324;28;20230;-87
2023/01/19 05:59:11;;;;;;;6.25;4.80;;;;;;;;;;5100671;28;20238;-87
2023/01/19 06:01:39;;;;;;;5.65;5.13;;;;;;;;;;5095747;28;20204;-87
2023/01/19 06:04:06;;;;;;;4.20;3.80;;;;;;;;;;5095657;28;20251;-86
2023/01/19 06:06:34;;;;;;;5.35;4.57;;;;;;;;;;5095052;28;20222;-87
2023/01/19 06:09:01;;;;;;;7.10;5.55;;;;;;;;;;5093627;28;20295;-85
2023/01/19 06:11:29;;;;;;;5.70;5.20;;;;;;;;;;5094959;28;20235;-86
2023/01/19 06:13:58;;;;;;;4.65;4.25;;;;;;;;;;5094819;28;20240;-87
2023/01/19 06:16:25;;;;;;;5.72;4.72;;;;;;;;;;5094336;28;20586;-87
2023/01/19 06:18:53;;;;;;;4.95;4.55;;;;;;;;;;5094679;28;20296;-87
2023/01/19 06:21:20;;;;;;;5.65;4.65;;;;;;;;;;5093890;28;20211;-87
2023/01/19 06:23:48;;;;;;;6.82;5.30;;;;;;;;;;5094925;28;20307;-87
2023/01/19 06:26:15;;;;;;;5.90;4.55;;;;;;;;;;5094914;28;20715;-87
2023/01/19 06:28:42;;;;;;;6.25;5.00;;;;;;;;;;5094300;28;20288;-87
2023/01/19 06:31:11;;;;;;;7.18;6.53;;;;;;;;;;5095051;28;20242;-86
2023/01/19 06:33:39;;;;;;;7.93;5.15;;;;;;;;;;5095266;28;20200;-87
2023/01/19 06:36:07;;;;;;;4.65;4.10;;;;;;;;;;5096298;28;20314;-87
2023/01/19 06:38:34;;;;;;;6.50;5.65;;;;;;;;;;5095755;28;20201;-88
2023/01/19 06:41:03;;;;;;;5.90;5.18;;;;;;;;;;5096472;28;20239;-87
2023/01/19 06:43:31;;;;;;;5.47;4.35;;;;;;;;;;5096897;28;20200;-87
2023/01/19 06:45:59;;;;;;;4.97;4.47;;;;;;;;;;5097557;28;20231;-86
2023/01/19 06:48:28;;;;;;;6.65;4.80;;;;;;;;;;5096102;28;20200;-87
2023/01/19 06:50:56;;;;;;;7.68;5.60;;;;;;;;;;5096189;28;20204;-87
2023/01/19 06:53:26;;;;;;;6.18;5.38;;;;;;;;;;5096672;28;20273;-88
2023/01/19 06:55:54;;;;;;;4.78;4.28;;;;;;;;;;5096467;28;20243;-89
2023/01/19 06:58:21;;;;;;;5.07;4.57;;;;;;;;;;5095174;28;20235;-88
2023/01/19 07:00:49;;;;;;;5.65;4.55;;;;;;;;;;5098322;28;20238;-86
2023/01/19 07:03:21;;;;;;;6.20;4.70;;;;;;;;;;5097412;28;20215;-89
2023/01/19 07:05:52;;;;;;;5.72;5.00;;;;;;;;;;5096421;28;20317;-87
2023/01/19 07:08:20;;;;;;;6.40;5.43;;;;;;;;;;5095222;28;20692;-88
2023/01/19 07:10:47;;;;;;;6.15;5.13;;;;;;;;;;5097081;28;20307;-87
2023/01/19 07:13:15;;;;;;;5.65;5.10;;;;;;;;;;5096666;28;20208;-86
2023/01/19 07:15:43;;;;;;;6.05;4.65;;;;;;;;;;5097233;28;20252;-88
2023/01/19 07:18:10;;;;;;;5.57;4.55;;;;;;;;;;5095840;28;20228;-87
2023/01/19 07:20:38;;;;;;;8.43;5.55;;;;;;;;;;5097049;28;20243;-88
2023/01/19 07:23:08;;;;;;;9.75;5.88;;;;;;;;;;5095863;28;20374;-86
2023/01/19 07:25:35;;;;;;;5.25;4.75;;;;;;;;;;5096330;28;20227;-87
2023/01/19 07:28:03;;;;;;;4.38;3.97;;;;;;;;;;5096117;28;20357;-88
2023/01/19 07:30:31;;;;;;;5.45;4.95;;;;;;;;;;5115027;27;20738;-88
2023/01/19 07:32:59;;;;;;;4.65;4.20;;;;;;;;;;5117500;27;20712;-87
2023/01/19 07:35:28;;;;;;;6.53;5.10;;;;;;;;;;5116839;28;20264;-86
2023/01/19 07:37:56;;;;;;;5.55;5.00;;;;;;;;;;5116511;28;20208;-85
2023/01/19 07:40:24;;;;;;;5.50;5.00;;;;;;;;;;5115868;28;20199;-88
2023/01/19 07:42:52;;;;;;;5.32;4.60;;;;;;;;;;5116398;28;20231;-87
2023/01/19 07:45:21;;;;;;;6.85;5.57;;;;;;;;;;5103654;28;20258;-88
2023/01/19 07:47:50;;;;;;;6.45;5.82;;;;;;;;;;5116369;28;20290;-89
2023/01/19 07:50:23;;;;;;;7.57;5.38;;;;;;;;;;5116234;28;20246;-86
2023/01/19 07:52:52;;;;;;;5.65;4.70;;;;;;;;;;5115641;28;20287;-88
2023/01/19 07:55:20;;;;;;;6.35;5.38;;;;;;;;;;5115051;28;20322;-89
2023/01/19 07:57:50;;;;;;;7.45;6.13;;;;;;;;;;5115796;28;20291;-88
2023/01/19 08:00:20;;;;;;;5.25;4.75;;;;;;;;;;5115828;28;20218;-86
2023/01/19 08:02:50;;;;;;;6.30;5.38;;;;;;;;;;5116020;28;20203;-89
2023/01/19 08:05:17;;;;;;;5.70;5.20;;;;;;;;;;5116208;28;20700;-88
2023/01/19 08:07:45;;;;;;;5.65;4.97;;;;;;;;;;5115902;28;20211;-88
2023/01/19 08:10:14;;;;;;;6.57;5.75;;;;;;;;;;5115425;28;20656;-87
2023/01/19 08:12:41;;;;;;;4.45;3.97;;;;;;;;;;5114970;28;20624;-88
2023/01/19 08:15:11;;;;;;;4.50;4.10;;;;;;;;;;5115526;28;20204;-86
2023/01/19 08:17:39;;;;;;;5.28;4.53;;;;;;;;;;5118924;28;20233;-85
2023/01/19 08:20:08;;;;;;;4.22;3.65;;;;;;;;;;5119252;28;20306;-87
2023/01/19 08:22:36;;;;;;;4.97;4.32;;;;;;;;;;5119680;28;20196;-88
2023/01/19 08:25:04;;;;;;;4.90;4.50;;;;;;;;;;5120510;28;20659;-87
2023/01/19 08:27:32;;;;;;;5.68;5.07;;;;;;;;;;5119349;28;20263;-88
2023/01/19 08:29:59;;;;;;;5.20;4.75;;;;;;;;;;5099587;28;20295;-88
2023/01/19 08:32:28;;;;;;;5.88;4.53;;;;;;;;;;5099399;28;20239;-85
2023/01/19 08:34:56;;;;;;;4.10;3.70;;;;;;;;;;5099952;28;20295;-87
2023/01/19 08:37:24;;;;;;;6.88;5.38;;;;;;;;;;5100267;28;20263;-87
2023/01/19 08:39:52;;;;;;;6.35;5.30;;;;;;;;;;5099685;28;20197;-84
2023/01/19 08:42:20;;;;;;;7.75;6.20;;;;;;;;;;5099915;28;20250;-84
2023/01/19 08:44:47;;;;;;;6.40;5.72;;;;;;;;;;5099023;28;20208;-87
2023/01/19 08:47:16;;;;;;;6.20;5.65;;;;;;;;;;5098773;28;20248;-88
2023/01/19 08:49:45;;;;;;;5.88;5.00;;;;;;;;;;5098378;28;20807;-88
2023/01/19 08:52:12;;;;;;;6.40;4.80;;;;;;;;;;5098955;28;20204;-88
2023/01/19 08:54:40;;;;;;;5.63;5.13;;;;;;;;;;5098698;28;20300;-87
2023/01/19 08:57:08;;;;;;;6.97;4.38;;;;;;;;;;5098386;28;20596;-87
2023/01/19 08:59:35;;;;;;;4.65;4.15;;;;;;;;;;5098723;28;20718;-88
2023/01/19 09:02:03;;;;;;;5.32;4.82;;;;;;;;;;5098767;28;20684;-86
2023/01/19 09:04:33;;;;;;;5.57;4.22;;;;;;;;;;5098815;28;20291;-88
2023/01/19 09:07:02;;;;;;;6.85;5.20;;;;;;;;;;5099424;28;20311;-87
2023/01/19 09:09:29;;;;;;;5.22;4.72;;;;;;;;;;5099690;28;20232;-88
2023/01/19 09:11:57;;;;;;;6.90;5.28;;;;;;;;;;5101311;28;20200;-89
2023/01/19 09:14:24;;;;;;;4.65;4.00;;;;;;;;;;5099708;28;20283;-87
2023/01/19 09:16:52;;;;;;;4.68;4.20;;;;;;;;;;5098953;28;20219;-88
2023/01/19 09:19:19;;;;;;;4.90;4.50;;;;;;;;;;5098933;28;20627;-87
2023/01/19 09:21:47;;;;;;;5.32;4.60;;;;;;;;;;5099094;28;20212;-88
2023/01/19 09:24:16;;;;;;;5.20;4.55;;;;;;;;;;5099203;28;20205;-88
2023/01/19 09:26:43;;;;;;;4.93;4.53;;;;;;;;;;5099971;28;20311;-89
2023/01/19 09:29:11;;;;;;;4.13;3.72;;;;;;;;;;5097458;28;20236;-88
2023/01/19 09:31:38;;;;;;;3.83;3.42;;;;;;;;;;5100368;28;20242;-88
2023/01/19 09:34:07;;;;;;;4.13;3.72;;;;;;;;;;5100099;28;20193;-88
2023/01/19 09:36:36;;;;;;;6.15;4.78;;;;;;;;;;5100519;28;20212;-85
2023/01/19 09:39:03;;;;;;;5.05;4.57;;;;;;;;;;5099185;28;20196;-87
2023/01/19 09:41:35;;;;;;;4.70;4.25;;;;;;;;;;5099821;28;20635;-88
2023/01/19 09:44:02;;;;;;;5.97;3.95;;;;;;;;;;5100017;28;20189;-88
2023/01/19 09:46:35;;;;;;;3.95;3.53;;;;;;;;;;5097226;28;20276;-85
2023/01/19 09:49:05;;;;;;;5.32;3.70;;;;;;;;;;5100187;28;20219;-89
2023/01/19 09:51:35;;;;;;;5.18;4.18;;;;;;;;;;5101190;28;20216;-88
2023/01/19 09:54:13;;;;;;;3.67;3.38;;;;;;;;;;5100871;28;20287;-88
2023/01/19 09:56:42;;;;;;;3.42;3.13;;;;;;;;;;5100999;28;20224;-88
2023/01/19 09:59:21;;;;;;;4.68;3.50;;;;;;;;;;5100277;28;20733;-89
2023/01/19 10:02:10;;;;;;;3.75;3.28;;;;;;;;;;5101361;28;20180;-88
2023/01/19 10:04:41;;;;;;;3.30;3.00;;;;;;;;;;5099312;28;20275;-89
2023/01/19 10:07:23;;;;;;;4.28;3.88;;;;;;;;;;5100396;28;20262;-89
2023/01/19 10:10:20;;;;;;;4.35;3.50;;;;;;;;;;5100152;28;20265;-88
2023/01/19 10:13:01;;;;;;;4.03;3.63;;;;;;;;;;5101514;28;20219;-87
2023/01/19 10:15:43;;;;;;;4.05;3.70;;;;;;;;;;5100615;28;20665;-88
2023/01/19 10:18:19;;;;;;;4.57;4.03;;;;;;;;;;5100131;28;20188;-87
2023/01/19 10:20:51;;;;;;;3.45;3.25;;;;;;;;;;5099657;28;20249;-88
2023/01/19 10:23:37;;;;;;;3.30;3.00;;;;;;;;;;5100437;28;20272;-88
2023/01/19 10:26:10;;;;;;;4.05;3.65;;;;;;;;;;5100510;28;20250;-87
2023/01/19 10:28:39;;;;;;;2.88;2.67;;;;;;;;;;5100817;28;20752;-87
2023/01/19 10:31:08;;;;;;;5.38;4.00;;;;;;;;;;5101037;28;20688;-89
2023/01/19 10:33:36;;;;;;;3.50;3.20;;;;;;;;;;5101878;28;20876;-88
2023/01/19 10:36:06;;;;;;;3.20;2.97;;;;;;;;;;5101525;28;20240;-88
2023/01/19 10:38:35;;;;;;;3.60;3.30;;;;;;;;;;5100685;28;20264;-88
2023/01/19 10:41:05;;;;;;;3.67;3.33;;;;;;;;;;5101078;28;20283;-88
2023/01/19 10:43:40;;;;;;;4.22;3.30;;;;;;;;;;5102055;28;20215;-88
2023/01/19 10:46:27;;;;;;;4.78;4.22;;;;;;;;;;5100945;28;20216;-88
2023/01/19 10:48:55;;;;;;;3.00;2.80;;;;;;;;;;5101391;28;20715;-88
2023/01/19 10:51:23;;;;;;;3.88;2.90;;;;;;;;;;5101131;28;20227;-88
2023/01/19 10:54:00;;;;;;;3.10;2.90;;;;;;;;;;5110018;28;20211;-88
2023/01/19 10:56:32;;;;;;;3.60;3.30;;;;;;;;;;5120626;28;20262;-88
2023/01/19 10:59:03;;;;;;;4.10;3.80;;;;;;;;;;5106655;28;20216;-88
2023/01/19 11:01:35;;;;;;;3.42;3.13;;;;;;;;;;5100632;28;20223;-87
2023/01/19 11:04:26;;;;;;;3.42;3.13;;;;;;;;;;5102750;28;20189;-89
2023/01/19 11:07:14;;;;;;;3.05;2.78;;;;;;;;;;5109681;28;20212;-89
2023/01/19 11:09:41;;;;;;;3.90;3.60;;;;;;;;;;5111760;28;20247;-89
2023/01/19 11:12:18;;;;;;;3.05;2.85;;;;;;;;;;5101057;28;20227;-87
2023/01/19 11:14:47;;;;;;;3.15;2.42;;;;;;;;;;5100733;28;20180;-89
2023/01/19 11:17:24;;;;;;;3.35;3.00;;;;;;;;;;5100782;28;20308;-88
2023/01/19 11:19:56;;;;;;;2.40;2.20;;;;;;;;;;5100016;28;20586;-87
2023/01/19 11:22:29;;;;;;;2.83;2.63;;;;;;;;;;5098766;28;20203;-89
2023/01/19 11:25:02;;;;;;;3.13;2.83;;;;;;;;;;5100025;28;20224;-89
2023/01/19 11:27:31;;;;;;;3.00;2.70;;;;;;;;;;5100091;28;20227;-87
2023/01/19 11:30:15;;;;;;;2.80;2.60;;;;;;;;;;5099198;28;20201;-89
2023/01/19 11:32:42;;;;;;;3.03;2.72;;;;;;;;;;5101003;28;20705;-88
2023/01/19 11:35:35;;;;;;;2.38;2.17;;;;;;;;;;5098186;28;20287;-90
2023/01/19 11:38:18;;;;;;;2.20;2.00;;;;;;;;;;5099924;28;20252;-88
2023/01/19 11:40:53;;;;;;;2.97;2.75;;;;;;;;;;5099271;28;20203;-88
2023/01/19 11:43:24;;;;;;;2.80;2.40;;;;;;;;;;5118141;28;20187;-88
2023/01/19 11:45:52;;;;;;;2.08;1.95;;;;;;;;;;5120693;28;20220;-87
2023/01/19 11:48:28;;;;;;;2.42;1.85;;;;;;;;;;5120178;28;20250;-87
2023/01/19 11:50:56;;;;;;;2.10;1.98;;;;;;;;;;5121393;28;20227;-88
2023/01/19 11:53:27;;;;;;;2.13;1.90;;;;;;;;;;5119691;28;20310;-88
2023/01/19 11:55:58;;;;;;;2.65;2.17;;;;;;;;;;5120201;28;20290;-89
2023/01/19 11:58:26;;;;;;;2.10;1.75;;;;;;;;;;5119057;28;20287;-88
2023/01/19 12:00:59;;;;;;;1.92;1.83;;;;;;;;;;5118239;28;20260;-89
2023/01/19 12:03:30;;;;;;;2.38;2.17;;;;;;;;;;5119406;28;20640;-88
2023/01/19 12:06:00;;;;;;;3.15;2.28;;;;;;;;;;5119947;28;20247;-88
2023/01/19 12:08:33;;;;;;;1.35;1.25;;;;;;;;;;5119891;28;20250;-88
2023/01/19 12:11:02;;;;;;;1.52;1.42;;;;;;;;;;5120706;28;20216;-89
2023/01/19 12:13:30;;;;;;;1.60;1.50;;;;;;;;;;5119904;28;20691;-88
2023/01/19 12:16:04;;;;;;;1.20;1.20;;;;;;;;;;5120616;28;20306;-88
2023/01/19 12:18:38;;;;;;;1.77;1.67;;;;;;;;;;5119177;28;20176;-88
2023/01/19 12:21:06;;;;;;;1.80;1.70;;;;;;;;;;5119489;28;20222;-87
2023/01/19 12:23:56;;;;;;;1.50;1.40;;;;;;;;;;5121023;28;20227;-88
2023/01/19 12:26:36;;;;;;;1.52;1.42;;;;;;;;;;5119981;28;20220;-87
2023/01/19 12:29:11;;;;;;;1.42;1.33;;;;;;;;;;5119844;28;20298;-88
2023/01/19 12:31:41;;;;;;;1.10;1.10;;;;;;;;;;5121042;28;20547;-88
2023/01/19 12:34:31;;;;;;;1.80;1.70;;;;;;;;;;5119893;28;20525;-88
2023/01/19 12:37:03;;;;;;;1.30;1.20;;;;;;;;;;5115059;28;20230;-87
2023/01/19 12:39:32;;;;;;;1.40;1.30;;;;;;;;;;5115888;28;20191;-88
2023/01/19 12:42:10;;;;;;;1.63;1.52;;;;;;;;;;5115317;28;20652;-88
2023/01/19 12:44:38;;;;;;;1.20;1.15;;;;;;;;;;5114956;28;20616;-87
2023/01/19 12:47:23;;;;;;;1.50;1.40;;;;;;;;;;5114624;28;20302;-87
2023/01/19 12:49:53;;;;;;;0.90;0.90;;;;;;;;;;5114354;28;20641;-87
2023/01/19 12:52:32;;;;;;;1.25;1.10;;;;;;;;;;5114632;28;20279;-88
2023/01/19 12:55:18;;;;;;;1.33;1.23;;;;;;;;;;5114172;28;20563;-86
2023/01/19 12:57:55;;;;;;;1.73;1.60;;;;;;;;;;5115691;28;20299;-87
2023/01/19 13:00:35;;;;;;;1.30;1.20;;;;;;;;;;5114890;28;20266;-87
2023/01/19 13:03:21;;;;;;;1.85;1.67;;;;;;;;;;5117307;28;20618;-87
2023/01/19 13:05:52;;;;;;;1.30;1.20;;;;;;;;;;5118747;28;20288;-87
2023/01/19 13:08:28;;;;;;;1.30;1.20;;;;;;;;;;5119787;28;20280;-87
2023/01/19 13:11:21;;;;;;;2.67;2.47;;;;;;;;;;5118934;28;20209;-88
2023/01/19 13:14:34;;;;;;;2.65;2.45;;;;;;;;;;5119220;28;20195;-86
2023/01/19 13:17:33;;;;;;;4.15;3.47;;;;;;;;;;5119479;28;20223;-85
2023/01/19 13:20:27;;;;;;;5.25;3.70;;;;;;;;;;5115728;28;20200;-87
2023/01/19 13:23:21;;;;;;;4.18;3.45;;;;;;;;;;5118593;28;20234;-88
2023/01/19 13:25:59;;;;;;;2.80;2.60;;;;;;;;;;5118864;28;20216;-88
2023/01/19 13:28:36;;;;;;;3.22;2.67;;;;;;;;;;5117826;28;20602;-89
2023/01/19 13:31:03;;;;;;;2.58;2.38;;;;;;;;;;5117693;28;20302;-88
2023/01/19 13:33:39;;;;;;;4.07;2.33;;;;;;;;;;5117598;28;20203;-86
2023/01/19 13:36:25;;;;;;;2.30;2.10;;;;;;;;;;5117097;28;20301;-88
2023/01/19 13:38:52;;;;;;;2.20;2.00;;;;;;;;;;5117674;28;20199;-88
2023/01/19 13:41:24;;;;;;;3.92;2.88;;;;;;;;;;5117369;28;20199;-87
2023/01/19 13:43:59;;;;;;;2.80;2.53;;;;;;;;;;5117231;28;20188;-87
2023/01/19 13:46:28;;;;;;;1.95;1.80;;;;;;;;;;5116998;28;20674;-88
2023/01/19 13:48:58;;;;;;;2.00;1.90;;;;;;;;;;5116897;28;20310;-88
2023/01/19 13:51:27;;;;;;;2.50;2.30;;;;;;;;;;5117173;28;20219;-87
2023/01/19 13:53:56;;;;;;;5.43;2.55;;;;;;;;;;5117303;28;20230;-87
2023/01/19 13:56:27;;;;;;;3.03;2.42;;;;;;;;;;5117398;28;20285;-88
2023/01/19 13:59:15;;;;;;;2.47;2.28;;;;;;;;;;5117060;28;20188;-87
2023/01/19 14:01:45;;;;;;;3.05;2.38;;;;;;;;;;5111428;28;20370;-87
2023/01/19 14:04:34;;;;;;;3.90;2.88;;;;;;;;;;5115439;28;20621;-87
2023/01/19 14:07:06;;;;;;;4.03;3.63;;;;;;;;;;5109998;28;20259;-87
2023/01/19 14:09:34;;;;;;;4.22;2.78;;;;;;;;;;5115420;27;20223;-88
2023/01/19 14:12:13;;;;;;;2.92;2.13;;;;;;;;;;5116025;28;20245;-88
2023/01/19 14:14:42;;;;;;;4.00;2.58;;;;;;;;;;5115659;28;20191;-88
2023/01/19 14:17:24;;;;;;;2.50;2.30;;;;;;;;;;5116778;28;20634;-87
2023/01/19 14:19:53;;;;;;;3.75;2.75;;;;;;;;;;5116361;28;20271;-88
2023/01/19 14:22:37;;;;;;;2.33;2.15;;;;;;;;;;5116397;28;20256;-87
2023/01/19 14:25:29;;;;;;;1.95;1.85;;;;;;;;;;5116185;28;20215;-87
2023/01/19 14:28:39;;;;;;;8.70;3.88;;;;;;;;;;5117349;28;20219;-87
2023/01/19 14:31:20;;;;;;;4.88;4.47;;;;;;;;;;5117790;28;20194;-87
2023/01/19 14:33:50;;;;;;;4.18;3.78;;;;;;;;;;5117378;28;20750;-87
2023/01/19 14:36:29;;;;;;;3.42;3.13;;;;;;;;;;5117805;28;20302;-86
2023/01/19 14:39:00;;;;;;;3.63;3.28;;;;;;;;;;5117266;28;20674;-86
2023/01/19 14:41:35;;;;;;;3.75;3.00;;;;;;;;;;5116976;28;20184;-86
2023/01/19 14:44:07;;;;;;;4.25;2.95;;;;;;;;;;5116634;28;20279;-86
2023/01/19 14:46:35;;;;;;;6.40;5.20;;;;;;;;;;5116997;28;20221;-86
2023/01/19 14:49:05;;;;;;;4.25;3.95;;;;;;;;;;5116037;28;20306;-86
2023/01/19 14:51:32;;;;;;;4.03;3.63;;;;;;;;;;5115867;28;20295;-87
2023/01/19 14:54:02;;;;;;;4.38;3.40;;;;;;;;;;5116171;28;20282;-86
2023/01/19 14:56:32;;;;;;;3.92;3.60;;;;;;;;;;5116592;28;20228;-86
2023/01/19 14:59:05;;;;;;;4.15;3.83;;;;;;;;;;5115879;28;20195;-86
2023/01/19 15:01:32;;;;;;;5.15;4.68;;;;;;;;;;5116511;28;20276;-86
2023/01/19 15:04:00;;;;;;;4.60;4.22;;;;;;;;;;5116884;28;20238;-86
2023/01/19 15:06:27;;;;;;;9.40;7.43;;;;;;;;;;5116716;28;20600;-86
2023/01/19 15:08:55;;;;;;;5.25;4.75;;;;;;;;;;5116566;28;20310;-87
2023/01/19 15:11:26;;;;;;;5.03;4.55;;;;;;;;;;5116010;28;20252;-87
2023/01/19 15:13:55;;;;;;;4.47;4.05;;;;;;;;;;5116029;28;20266;-88